Time;durP1;ratioP1;P1;durP2;ratioP2;P2;SDS_P1;SDS_P2;PMS_P1;PMS_P2;Temp;Humidity;BMP_temperature;BMP_pressure;BME280_temperature;BME280_humidity;BME280_pressure;Samples;Min_cycle;Max_cycle;Signal;HPM_P1;HPM_P2
2023/04/01 00:01:55;;;;;;;;;;;;;;;8.45;100.00;99094.19;5058389;28;19963;-73
2023/04/01 00:04:21;;;;;;;;;;;;;;;8.47;100.00;99088.66;5060822;28;19924;-76
2023/04/01 00:06:47;;;;;;;;;;;;;;;8.45;100.00;99098.69;5043517;28;19927;-75
2023/04/01 00:09:12;;;;;;;;;;;;;;;8.35;100.00;99083.50;5038526;28;19967;-75
2023/04/01 00:11:38;;;;;;;;;;;;;;;8.44;100.00;99103.19;5073544;28;20025;-74
2023/04/01 00:14:03;;;;;;;;;;;;;;;8.44;100.00;99091.63;5049738;28;19942;-76
2023/04/01 00:16:29;;;;;;;;;;;;;;;8.45;100.00;99098.69;5046223;28;19953;-75
2023/04/01 00:18:54;;;;;;;;;;;;;;;8.45;100.00;99110.22;5058059;28;19927;-75
2023/04/01 00:21:20;;;;;;;;;;;;;;;8.53;100.00;99107.66;5050055;28;22011;-76
2023/04/01 00:23:46;;;;;;;;;;;;;;;8.43;100.00;99100.66;5054982;28;19920;-76
2023/04/01 00:26:11;;;;;;;;;;;;;;;8.45;100.00;99096.00;5059474;28;20385;-74
2023/04/01 00:28:37;;;;;;;;;;;;;;;8.43;100.00;99100.66;5067272;28;19924;-78
2023/04/01 00:31:06;;;;;;;;;;;;;;;8.42;100.00;99099.81;5055338;28;20355;-76
2023/04/01 00:33:31;;;;;;;;;;;;;;;8.49;100.00;99108.94;5055436;28;19920;-74
2023/04/01 00:36:04;;;;;;;;;;;;;;;8.47;100.00;99099.38;5077643;28;20361;-78
2023/04/01 00:38:30;;;;;;;;;;;;;;;8.44;100.00;99105.00;5070944;28;19924;-75
2023/04/01 00:40:56;;;;;;;;;;;;;;;8.49;100.00;99111.63;5038170;28;19977;-75
2023/04/01 00:43:22;;;;;;;;;;;;;;;8.48;100.00;99104.59;5057836;28;19982;-73
2023/04/01 00:45:48;;;;;;;;;;;;;;;8.49;100.00;99103.59;5057297;28;20430;-73
2023/04/01 00:48:17;;;;;;;;;;;;;;;8.42;100.00;99105.16;5058759;28;19958;-74
2023/04/01 00:50:44;;;;;;;;;;;;;;;8.48;100.00;99112.59;5073021;28;19920;-76
2023/04/01 00:53:10;;;;;;;;;;;;;;;8.45;100.00;99114.72;5061475;28;20235;-76
2023/04/01 00:55:35;;;;;;;;;;;;;;;8.49;100.00;99114.28;5060577;28;19924;-72
2023/04/01 00:58:01;;;;;;;;;;;;;;;8.47;100.00;99116.28;5056112;28;19920;-75
2023/04/01 01:00:27;;;;;;;;;;;;;;;8.48;100.00;99111.75;5041373;28;20274;-75
2023/04/01 01:02:52;;;;;;;;;;;;;;;8.51;100.00;99116.84;5076384;28;19920;-79
2023/04/01 01:05:17;;;;;;;;;;;;;;;8.54;100.00;99119.22;5060010;28;19931;-79
2023/04/01 01:07:47;;;;;;;;;;;;;;;8.53;100.00;99126.38;5060794;28;21567;-78
2023/04/01 01:10:12;;;;;;;;;;;;;;;8.54;100.00;99124.56;5072792;28;19981;-75
2023/04/01 01:12:37;;;;;;;;;;;;;;;8.58;100.00;99119.75;5080710;28;19920;-78
2023/04/01 01:15:02;;;;;;;;;;;;;;;8.55;100.00;99119.06;5078695;28;20374;-80
2023/04/01 01:17:37;;;;;;;;;;;;;;;8.57;100.00;99132.31;5059792;28;19920;-76
2023/04/01 01:20:21;;;;;;;;;;;;;;;8.53;100.00;99141.59;5057708;28;19950;-80
2023/04/01 01:22:52;;;;;;;;;;;;;;;8.53;100.00;99137.09;5070505;28;19920;-75
2023/04/01 01:25:38;;;;;;;;;;;;;;;8.52;100.00;99140.75;5058090;28;19967;-78
2023/04/01 01:28:13;;;;;;;;;;;;;;;8.61;100.00;99131.00;5055417;28;19924;-74
2023/04/01 01:30:42;;;;;;;;;;;;;;;8.54;100.00;99138.78;5048649;28;19928;-78
2023/04/01 01:33:11;;;;;;;;;;;;;;;8.55;100.00;99147.66;5039922;28;19927;-77
2023/04/01 01:35:36;;;;;;;;;;;;;;;8.56;100.00;99141.31;5074660;28;19931;-74
2023/04/01 01:38:02;;;;;;;;;;;;;;;8.57;100.00;99143.00;5071727;28;19920;-82
2023/04/01 01:40:28;;;;;;;;;;;;;;;8.57;100.00;99151.03;5070361;28;19942;-78
2023/04/01 01:42:55;;;;;;;;;;;;;;;8.59;100.00;99142.84;5042681;28;19927;-77
2023/04/01 01:45:20;;;;;;;;;;;;;;;8.60;100.00;99149.88;5043202;28;19968;-78
2023/04/01 01:47:46;;;;;;;;;;;;;;;8.57;100.00;99152.84;5058451;28;19928;-77
2023/04/01 01:50:11;;;;;;;;;;;;;;;8.53;100.00;99157.66;5052449;28;20007;-76
2023/04/01 01:52:36;;;;;;;;;;;;;;;8.57;100.00;99160.88;5052153;28;19958;-79
2023/04/01 01:55:02;;;;;;;;;;;;;;;8.56;100.00;99160.03;5066852;28;19920;-78
2023/04/01 01:57:28;;;;;;;;;;;;;;;8.52;100.00;99155.97;5063825;28;19920;-78
2023/04/01 01:59:55;;;;;;;;;;;;;;;8.59;100.00;99170.44;5044067;28;19928;-78
2023/04/01 02:02:20;;;;;;;;;;;;;;;8.63;100.00;99158.44;5050683;28;19920;-76
2023/04/01 02:04:46;;;;;;;;;;;;;;;8.57;100.00;99166.22;5052430;28;20205;-77
2023/04/01 02:07:16;;;;;;;;;;;;;;;8.56;100.00;99162.72;5053389;28;19971;-79
2023/04/01 02:09:41;;;;;;;;;;;;;;;8.52;100.00;99164.00;5048289;28;19927;-76
2023/04/01 02:12:07;;;;;;;;;;;;;;;8.51;100.00;99165.81;5066456;28;19924;-76
2023/04/01 02:14:39;;;;;;;;;;;;;;;8.55;100.00;99169.06;5050957;28;20568;-79
2023/04/01 02:17:12;;;;;;;;;;;;;;;8.51;100.00;99175.69;5048713;28;19943;-79
2023/04/01 02:19:42;;;;;;;;;;;;;;;8.51;100.00;99170.34;5048187;28;19924;-77
2023/04/01 02:22:09;;;;;;;;;;;;;;;8.58;100.00;99178.59;5066719;28;19931;-79
2023/04/01 02:24:35;;;;;;;;;;;;;;;8.54;100.00;99178.06;5050402;28;19920;-75
2023/04/01 02:27:00;;;;;;;;;;;;;;;8.45;100.00;99177.09;5064076;28;19966;-75
2023/04/01 02:29:25;;;;;;;;;;;;;;;8.46;100.00;99181.47;5062292;28;19921;-77
2023/04/01 02:31:50;;;;;;;;;;;;;;;8.43;100.00;99181.75;5054317;28;19924;-76
2023/04/01 02:34:16;;;;;;;;;;;;;;;8.44;100.00;99186.09;5036770;28;19931;-78
2023/04/01 02:36:41;;;;;;;;;;;;;;;8.44;100.00;99186.09;5051609;28;19931;-77
2023/04/01 02:39:07;;;;;;;;;;;;;;;8.47;100.00;99188.50;5051330;28;19921;-76
2023/04/01 02:41:32;;;;;;;;;;;;;;;8.45;100.00;99186.94;5048387;28;19927;-78
2023/04/01 02:43:58;;;;;;;;;;;;;;;8.40;100.00;99182.03;5050803;28;19973;-76
2023/04/01 02:46:23;;;;;;;;;;;;;;;8.41;100.00;99189.06;5066117;28;19963;-80
2023/04/01 02:48:49;;;;;;;;;;;;;;;8.38;100.00;99189.34;5049795;28;19958;-78
2023/04/01 02:51:14;;;;;;;;;;;;;;;8.45;100.00;99192.28;5051359;28;19916;-76
2023/04/01 02:53:39;;;;;;;;;;;;;;;8.40;100.00;99195.41;5065235;28;20011;-79
2023/04/01 02:56:04;;;;;;;;;;;;;;;8.33;100.00;99200.50;5034557;28;19975;-75
2023/04/01 02:58:30;;;;;;;;;;;;;;;8.35;100.00;99192.31;5046561;28;20014;-74
2023/04/01 03:00:55;;;;;;;;;;;;;;;8.28;100.00;99201.91;5067499;28;20271;-77
2023/04/01 03:03:20;;;;;;;;;;;;;;;8.29;100.00;99204.44;5056257;28;20035;-81
2023/04/01 03:05:45;;;;;;;;;;;;;;;8.31;100.00;99204.28;5054399;28;19920;-76
2023/04/01 03:08:11;;;;;;;;;;;;;;;8.32;100.00;99209.50;5072475;28;20260;-77
2023/04/01 03:10:37;;;;;;;;;;;;;;;8.21;100.00;99202.47;5051999;28;19935;-76
2023/04/01 03:13:02;;;;;;;;;;;;;;;8.22;100.00;99212.19;5040307;28;19930;-77
2023/04/01 03:15:27;;;;;;;;;;;;;;;8.20;100.00;99208.84;5051527;28;20007;-78
2023/04/01 03:17:52;;;;;;;;;;;;;;;8.20;100.00;99210.66;5073974;28;20061;-77
2023/04/01 03:20:17;;;;;;;;;;;;;;;8.17;100.00;99211.78;5077717;28;19952;-77
2023/04/01 03:22:43;;;;;;;;;;;;;;;8.14;100.00;99217.44;5072396;28;19965;-79
2023/04/01 03:25:08;;;;;;;;;;;;;;;8.15;100.00;99216.44;5076743;28;19924;-76
2023/04/01 03:27:35;;;;;;;;;;;;;;;8.17;100.00;99216.28;5076461;28;19949;-75
2023/04/01 03:30:00;;;;;;;;;;;;;;;8.17;100.00;99213.59;5057564;28;19927;-80
2023/04/01 03:32:27;;;;;;;;;;;;;;;8.15;100.00;99215.59;5059468;28;19981;-78
2023/04/01 03:34:52;;;;;;;;;;;;;;;8.15;100.00;99221.78;5059265;28;19931;-78
2023/04/01 03:37:17;;;;;;;;;;;;;;;8.17;100.00;99222.50;5056066;28;19923;-77
2023/04/01 03:39:42;;;;;;;;;;;;;;;8.16;100.00;99223.47;5077738;28;19927;-74
2023/04/01 03:42:07;;;;;;;;;;;;;;;8.11;100.00;99221.22;5052308;28;20006;-75
2023/04/01 03:44:33;;;;;;;;;;;;;;;8.13;100.00;99223.75;5058860;28;19926;-80
2023/04/01 03:46:58;;;;;;;;;;;;;;;8.13;100.00;99220.22;5042296;28;19932;-77
2023/04/01 03:49:23;;;;;;;;;;;;;;;8.11;100.00;99221.22;5051899;28;19926;-75
2023/04/01 03:51:49;;;;;;;;;;;;;;;8.08;100.00;99221.50;5052534;28;20368;-75
2023/04/01 03:54:14;;;;;;;;;;;;;;;8.10;100.00;99224.03;5069670;28;20370;-75
2023/04/01 03:56:39;;;;;;;;;;;;;;;8.08;100.00;99224.16;5037491;28;20394;-76
2023/04/01 03:59:05;;;;;;;;;;;;;;;8.10;100.00;99224.88;5068439;28;19939;-74
2023/04/01 04:01:31;;;;;;;;;;;;;;;8.11;100.00;99231.06;5069873;28;19920;-77
2023/04/01 04:03:56;;;;;;;;;;;;;;;8.09;100.00;99225.84;5053056;28;19927;-74
2023/04/01 04:06:21;;;;;;;;;;;;;;;8.08;100.00;99229.50;5070855;28;20304;-75
2023/04/01 04:08:46;;;;;;;;;;;;;;;8.06;100.00;99234.19;5052654;28;20068;-74
2023/04/01 04:11:12;;;;;;;;;;;;;;;8.04;100.00;99241.50;5068078;28;19920;-73
2023/04/01 04:13:37;;;;;;;;;;;;;;;8.15;100.00;99237.81;5069142;28;19993;-77
2023/04/01 04:16:03;;;;;;;;;;;;;;;8.15;100.00;99243.19;5070816;28;19924;-76
2023/04/01 04:18:28;;;;;;;;;;;;;;;8.07;100.00;99240.38;5040968;28;19920;-76
2023/04/01 04:20:53;;;;;;;;;;;;;;;8.00;100.00;99245.44;5075010;28;19992;-74
2023/04/01 04:23:19;;;;;;;;;;;;;;;8.05;100.00;99245.88;5072268;28;19916;-75
2023/04/01 04:25:54;;;;;;;;;;;;;;;8.06;100.00;99249.38;5059704;28;19923;-74
2023/04/01 04:28:19;;;;;;;;;;;;;;;7.99;100.00;99256.25;5058756;28;20361;-73
2023/04/01 04:30:45;;;;;;;;;;;;;;;8.00;100.00;99250.78;5069277;28;19956;-78
2023/04/01 04:33:10;;;;;;;;;;;;;;;8.02;100.00;99254.16;5058568;28;20022;-75
2023/04/01 04:35:35;;;;;;;;;;;;;;;8.01;100.00;99249.81;5057971;28;19930;-74
2023/04/01 04:38:00;;;;;;;;;;;;;;;7.94;100.00;99254.03;5061406;28;19920;-75
2023/04/01 04:40:25;;;;;;;;;;;;;;;7.97;100.00;99251.06;5071837;28;19924;-73
2023/04/01 04:42:51;;;;;;;;;;;;;;;8.02;100.00;99258.66;5074989;28;19920;-73
2023/04/01 04:45:16;;;;;;;;;;;;;;;7.98;100.00;99259.91;5072504;28;19920;-73
2023/04/01 04:47:41;;;;;;;;;;;;;;;7.91;100.00;99259.66;5074296;28;20047;-74
2023/04/01 04:50:07;;;;;;;;;;;;;;;7.93;100.00;99258.53;5068978;28;20227;-76
2023/04/01 04:52:32;;;;;;;;;;;;;;;7.90;100.00;99263.31;5070678;28;19920;-75
2023/04/01 04:54:57;;;;;;;;;;;;;;;7.98;100.00;99266.13;5066476;28;20309;-75
2023/04/01 04:57:22;;;;;;;;;;;;;;;7.99;100.00;99278.50;5068823;28;20332;-75
2023/04/01 04:59:47;;;;;;;;;;;;;;;7.94;100.00;99275.41;5048617;28;20705;-76
2023/04/01 05:02:13;;;;;;;;;;;;;;;7.92;100.00;99275.56;5068216;28;20513;-76
2023/04/01 05:04:38;;;;;;;;;;;;;;;7.87;100.00;99276.94;5068860;28;19973;-75
2023/04/01 05:07:03;;;;;;;;;;;;;;;7.90;100.00;99282.00;5070194;28;19979;-74
2023/04/01 05:09:28;;;;;;;;;;;;;;;7.91;100.00;99278.34;5053298;28;19967;-73
2023/04/01 05:11:54;;;;;;;;;;;;;;;7.93;100.00;99279.91;5068943;28;19959;-74
2023/04/01 05:14:19;;;;;;;;;;;;;;;7.86;100.00;99289.47;5071271;28;19931;-73
2023/04/01 05:16:44;;;;;;;;;;;;;;;7.76;100.00;99270.78;5068240;28;20494;-74
2023/04/01 05:19:09;;;;;;;;;;;;;;;7.90;100.00;99288.22;5063772;28;20393;-75
2023/04/01 05:21:35;;;;;;;;;;;;;;;7.91;100.00;99297.91;5067916;28;19948;-74
2023/04/01 05:24:00;;;;;;;;;;;;;;;7.92;100.00;99299.59;5069655;28;20433;-77
2023/04/01 05:26:25;;;;;;;;;;;;;;;7.95;100.00;99295.78;5060820;28;20042;-75
2023/04/01 05:28:50;;;;;;;;;;;;;;;7.98;100.00;99298.19;5068932;28;20023;-74
2023/04/01 05:31:15;;;;;;;;;;;;;;;7.98;100.00;99311.56;5064633;28;21421;-73
2023/04/01 05:33:41;;;;;;;;;;;;;;;8.02;100.00;99312.97;5069402;28;19924;-75
2023/04/01 05:36:13;;;;;;;;;;;;;;;8.06;100.00;99314.38;5052267;28;20209;-75
2023/04/01 05:38:39;;;;;;;;;;;;;;;8.10;100.00;99318.44;5070698;28;20388;-77
2023/04/01 05:41:04;;;;;;;;;;;;;;;8.11;100.00;99325.47;5068610;28;20256;-76
2023/04/01 05:43:29;;;;;;;;;;;;;;;8.15;100.00;99328.72;5049665;28;20358;-76
2023/04/01 05:45:55;;;;;;;;;;;;;;;8.20;100.00;99330.97;5066785;28;19920;-78
2023/04/01 05:48:20;;;;;;;;;;;;;;;8.21;100.00;99332.66;5072260;28;20608;-75
2023/04/01 05:50:45;;;;;;;;;;;;;;;8.25;100.00;99336.75;5064507;28;19920;-76
2023/04/01 05:53:11;;;;;;;;;;;;;;;8.24;100.00;99343.91;5067506;28;19975;-75
2023/04/01 05:55:36;;;;;;;;;;;;;;;8.24;100.00;99337.72;5048652;28;20406;-76
2023/04/01 05:58:01;;;;;;;;;;;;;;;8.27;100.00;99337.44;5065052;28;19924;-75
2023/04/01 06:00:26;;;;;;;;;;;;;;;8.30;100.00;99344.31;5065257;28;19919;-76
2023/04/01 06:02:52;;;;;;;;;;;;;;;8.33;100.00;99344.91;5063593;28;20598;-75
2023/04/01 06:05:21;;;;;;;;;;;;;;;8.33;100.00;99349.41;5068482;28;19924;-76
2023/04/01 06:07:47;;;;;;;;;;;;;;;8.37;100.00;99354.31;5065929;28;19931;-77
2023/04/01 06:10:13;;;;;;;;;;;;;;;8.40;100.00;99356.69;5065940;28;19920;-76
2023/04/01 06:12:50;;;;;;;;;;;;;;;8.43;100.00;99360.09;5064356;28;19924;-74
2023/04/01 06:15:20;;;;;;;;;;;;;;;8.48;100.00;99365.84;5065437;28;20130;-75
2023/04/01 06:18:02;;;;;;;;;;;;;;;8.53;100.00;99369.00;5066375;28;19951;-75
2023/04/01 06:20:31;;;;;;;;;;;;;;;8.51;100.00;99376.31;5064845;28;20057;-76
2023/04/01 06:23:00;;;;;;;;;;;;;;;8.37;100.00;99356.97;5067049;28;20003;-74
2023/04/01 06:25:28;;;;;;;;;;;;;;;8.59;100.00;99381.81;5065539;28;19924;-76
2023/04/01 06:28:19;;;;;;;;;;;;;;;8.52;100.00;99386.03;5063820;28;20422;-74
2023/04/01 06:30:46;;;;;;;;;;;;;;;8.55;100.00;99391.91;5045118;28;19920;-75
2023/04/01 06:33:30;;;;;;;;;;;;;;;8.60;100.00;99390.66;5045835;28;20531;-74
2023/04/01 06:35:59;;;;;;;;;;;;;;;8.64;100.00;99408.94;5067884;28;19928;-75
2023/04/01 06:38:34;;;;;;;;;;;;;;;8.44;100.00;99357.28;5046728;28;19920;-76
2023/04/01 06:41:19;;;;;;;;;;;;;;;8.66;100.00;99400.78;5047015;28;19928;-76
2023/04/01 06:43:59;;;;;;;;;;;;;;;8.75;100.00;99413.28;5065588;28;20367;-75
2023/04/01 06:46:43;;;;;;;;;;;;;;;8.77;100.00;99407.81;5065466;28;19919;-75
2023/04/01 06:49:17;;;;;;;;;;;;;;;8.76;100.00;99411.47;5064255;28;19920;-76
2023/04/01 06:52:12;;;;;;;;;;;;;;;8.76;100.00;99415.00;5049546;28;19927;-76
2023/04/01 06:54:40;;;;;;;;;;;;;;;8.74;100.00;99413.44;5013221;28;20024;-76
2023/04/01 06:57:24;;;;;;;;;;;;;;;8.79;100.00;99419.22;5067216;28;19924;-75
2023/04/01 06:59:49;;;;;;;;;;;;;;;8.79;100.00;99428.09;5065341;28;19924;-75
2023/04/01 07:02:18;;;;;;;;;;;;;;;8.92;100.00;99434.97;5069007;28;19959;-76
2023/04/01 07:04:44;;;;;;;;;;;;;;;8.87;100.00;99429.22;5051166;28;20289;-79
2023/04/01 07:07:16;;;;;;;;;;;;;;;8.89;100.00;99436.09;5068284;28;20267;-75
2023/04/01 07:09:41;;;;;;;;;;;;;;;8.91;100.00;99438.66;5046440;28;19989;-74
2023/04/01 07:12:42;;;;;;;;;;;;;;;8.90;100.00;99442.31;5065353;28;19971;-76
2023/04/01 07:15:16;;;;;;;;;;;;;;;8.94;100.00;99449.91;5024755;28;19928;-76
2023/04/01 07:17:41;;;;;;;;;;;;;;;8.93;100.00;99456.25;5064018;28;20424;-76
2023/04/01 07:20:13;;;;;;;;;;;;;;;8.94;100.00;99455.25;5050991;28;19951;-75
2023/04/01 07:22:39;;;;;;;;;;;;;;;8.96;100.00;99461.31;5068385;28;19991;-76
2023/04/01 07:25:30;;;;;;;;;;;;;;;8.97;100.00;99460.31;5045434;28;20012;-74
2023/04/01 07:27:57;;;;;;;;;;;;;;;8.91;100.00;99468.91;5062134;28;20311;-75
2023/04/01 07:30:22;;;;;;;;;;;;;;;9.04;100.00;99471.31;5062776;28;20244;-76
2023/04/01 07:32:50;;;;;;;;;;;;;;;9.04;100.00;99483.84;5054188;28;19924;-75
2023/04/01 07:35:15;;;;;;;;;;;;;;;8.98;100.00;99483.44;5067406;28;19935;-75
2023/04/01 07:37:41;;;;;;;;;;;;;;;8.92;100.00;99485.84;5076987;28;19928;-75
2023/04/01 07:40:10;;;;;;;;;;;;;;;8.97;100.00;99480.91;5052930;28;20448;-76
2023/04/01 07:42:41;;;;;;;;;;;;;;;8.98;100.00;99483.44;5036810;28;19924;-75
2023/04/01 07:45:27;;;;;;;;;;;;;;;8.97;100.00;99488.94;5069523;28;20324;-75
2023/04/01 07:47:56;;;;;;;;;;;;;;;8.97;100.00;99492.44;5071447;28;19920;-77
2023/04/01 07:50:27;;;;;;;;;;;;;;;8.88;100.00;99503.16;5070005;28;20001;-75
2023/04/01 07:53:11;;;;;;;;;;;;;;;8.87;100.00;99502.34;5071454;28;19921;-77
2023/04/01 07:55:49;;;;;;;;;;;;;;;8.90;100.00;99509.22;5048718;28;19925;-76
2023/04/01 07:58:33;;;;;;;;;;;;;;;8.88;100.00;99511.19;5072150;28;19920;-76
2023/04/01 08:01:03;;;;;;;;;;;;;;;8.90;100.00;99518.09;5055954;28;19924;-76
2023/04/01 08:03:28;;;;;;;;;;;;;;;8.90;100.00;99526.13;5072409;28;19931;-77
2023/04/01 08:06:09;;;;;;;;;;;;;;;8.96;100.00;99524.72;5070502;28;19920;-77
2023/04/01 08:08:46;;;;;;;;;;;;;;;8.90;100.00;99531.47;5076793;28;20010;-76
2023/04/01 08:11:21;;;;;;;;;;;;;;;8.87;100.00;99529.09;5056190;28;19924;-75
2023/04/01 08:13:57;;;;;;;;;;;;;;;8.81;100.00;99535.84;5054219;28;19927;-76
2023/04/01 08:16:28;;;;;;;;;;;;;;;8.82;100.00;99544.72;5073579;28;20279;-76
2023/04/01 08:18:59;;;;;;;;;;;;;;;8.79;100.00;99548.50;5077084;28;19973;-75
2023/04/01 08:21:28;;;;;;;;;;;;;;;8.92;100.00;99545.56;5076229;28;19927;-75
2023/04/01 08:23:55;;;;;;;;;;;;;;;8.80;100.00;99552.88;5068738;28;19926;-77
2023/04/01 08:26:44;;;;;;;;;;;;;;;8.59;100.00;99522.72;5066757;28;20286;-76
2023/04/01 08:29:11;;;;;;;;;;;;;;;8.77;100.00;99558.50;5065670;28;19923;-76
2023/04/01 08:31:45;;;;;;;;;;;;;;;8.80;100.00;99568.13;5032216;28;20464;-77
2023/04/01 08:34:20;;;;;;;;;;;;;;;8.94;100.00;99567.69;5055920;28;19942;-76
2023/04/01 08:36:54;;;;;;;;;;;;;;;8.94;100.00;99573.03;5052695;28;20010;-76
2023/04/01 08:39:19;;;;;;;;;;;;;;;8.98;100.00;99573.63;5049086;28;20010;-76
2023/04/01 08:41:58;;;;;;;;;;;;;;;9.04;100.00;99577.56;5071317;28;19920;-75
2023/04/01 08:44:23;;;;;;;;;;;;;;;9.05;100.00;99579.25;5055408;28;19927;-76
2023/04/01 08:46:52;;;;;;;;;;;;;;;8.84;100.00;99561.50;5054209;28;19920;-74
2023/04/01 08:49:35;;;;;;;;;;;;;;;9.07;100.00;99586.16;5070688;28;19919;-75
2023/04/01 08:52:06;;;;;;;;;;;;;;;9.04;100.00;99594.47;5071255;28;19920;-77
2023/04/01 08:54:31;;;;;;;;;;;;;;;9.10;100.00;99593.06;5063335;28;19974;-76
2023/04/01 08:57:20;;;;;;;;;;;;;;;9.07;100.00;99598.72;5057231;28;20409;-76
2023/04/01 09:00:20;;;;;;;;;;;;;;;9.22;100.00;99599.13;5037051;28;20082;-75
2023/04/01 09:02:48;;;;;;;;;;;;;;;9.05;100.00;99614.91;4986505;28;19933;-76
2023/04/01 09:05:26;;;;;;;;;;;;;;;9.12;100.00;99625.91;5053510;28;19927;-77
2023/04/01 09:08:10;;;;;;;;;;;;;;;9.14;100.00;99610.53;5044629;28;19927;-77
2023/04/01 09:10:56;;;;;;;;;;;;;;;9.15;100.00;99623.78;5074626;28;20312;-77
2023/04/01 09:13:30;;;;;;;;;;;;;;;9.14;100.00;99623.91;5061143;28;19927;-76
2023/04/01 09:15:58;;;;;;;;;;;;;;;9.17;100.00;99629.00;5037336;28;20105;-76
2023/04/01 09:18:23;;;;;;;;;;;;;;;9.13;100.00;99632.97;5074984;28;19920;-76
2023/04/01 09:21:07;;;;;;;;;;;;;;;9.24;100.00;99634.66;5077312;28;19916;-76
2023/04/01 09:23:51;;;;;;;;;;;;;;;9.20;100.00;99641.28;5076779;28;19916;-77
2023/04/01 09:26:20;;;;;;;;;;;;;;;9.23;100.00;99641.84;5076237;28;19963;-77
2023/04/01 09:28:45;;;;;;;;;;;;;;;9.16;100.00;99643.38;5061623;28;20347;-76
2023/04/01 09:31:19;;;;;;;;;;;;;;;9.15;100.00;99647.88;5057121;28;20414;-76
2023/04/01 09:34:03;;;;;;;;;;;;;;;9.25;100.00;99650.56;5053647;28;20266;-77
2023/04/01 09:36:33;;;;;;;;;;;;;;;9.21;100.00;99651.84;5073111;28;19928;-77
2023/04/01 09:38:59;;;;;;;;;;;;;;;9.15;100.00;99652.38;5036615;28;20405;-76
2023/04/01 09:41:32;;;;;;;;;;;;;;;9.21;100.00;99662.53;5053590;28;20492;-77
2023/04/01 09:44:02;;;;;;;;;;;;;;;9.25;100.00;99668.50;5053689;28;19920;-76
2023/04/01 09:46:35;;;;;;;;;;;;;;;9.26;100.00;99673.69;5055998;28;19965;-76
2023/04/01 09:49:19;;;;;;;;;;;;;;;9.23;100.00;99675.81;5058985;28;19951;-77
2023/04/01 09:51:57;;;;;;;;;;;;;;;9.23;100.00;99673.97;5071055;28;20429;-77
2023/04/01 09:54:42;;;;;;;;;;;;;;;9.29;100.00;99678.78;5065838;28;19920;-76
2023/04/01 09:57:10;;;;;;;;;;;;;;;9.34;100.00;99686.38;5066867;28;20331;-78
2023/04/01 09:59:50;;;;;;;;;;;;;;;9.32;100.00;99684.84;5068648;28;19945;-77
2023/04/01 10:02:16;;;;;;;;;;;;;;;9.29;100.00;99683.28;5063687;28;20301;-76
2023/04/01 10:04:47;;;;;;;;;;;;;;;9.33;100.00;99689.22;5069291;28;19930;-79
2023/04/01 10:07:24;;;;;;;;;;;;;;;9.27;100.00;99690.63;5066423;28;19920;-77
2023/04/01 10:09:49;;;;;;;;;;;;;;;9.37;100.00;99701.34;5052344;28;19992;-76
2023/04/01 10:12:33;;;;;;;;;;;;;;;9.33;100.00;99697.25;5061213;28;20380;-78
2023/04/01 10:15:17;;;;;;;;;;;;;;;9.25;100.00;99700.63;5063158;28;20019;-77
2023/04/01 10:17:54;;;;;;;;;;;;;;;9.29;100.00;99708.25;5062240;28;19924;-77
2023/04/01 10:20:28;;;;;;;;;;;;;;;9.24;100.00;99713.16;5058136;28;19919;-77
2023/04/01 10:23:05;;;;;;;;;;;;;;;9.22;100.00;99716.97;5065685;28;20045;-78
2023/04/01 10:25:34;;;;;;;;;;;;;;;9.39;100.00;99710.09;5050418;28;19924;-77
2023/04/01 10:28:12;;;;;;;;;;;;;;;9.44;100.00;99718.53;5069575;28;20617;-76
2023/04/01 10:30:55;;;;;;;;;;;;;;;9.46;100.00;99716.56;5062764;28;20371;-76
2023/04/01 10:33:41;;;;;;;;;;;;;;;9.41;100.00;99727.72;5064612;28;20285;-77
2023/04/01 10:36:09;;;;;;;;;;;;;;;9.50;100.00;99728.69;5067791;28;20382;-78
2023/04/01 10:38:37;;;;;;;;;;;;;;;9.52;100.00;99732.09;5053630;28;19998;-77
2023/04/01 10:41:14;;;;;;;;;;;;;;;9.56;100.00;99729.97;5069109;28;19924;-77
2023/04/01 10:43:58;;;;;;;;;;;;;;;9.46;100.00;99732.63;5058918;28;19993;-77
2023/04/01 10:46:41;;;;;;;;;;;;;;;9.50;100.00;99723.34;5068322;28;19920;-78
2023/04/01 10:49:09;;;;;;;;;;;;;;;9.51;100.00;99741.09;5055119;28;20465;-77
2023/04/01 10:51:53;;;;;;;;;;;;;;;9.52;100.00;99745.47;5055071;28;19924;-77
2023/04/01 10:54:37;;;;;;;;;;;;;;;9.48;100.00;99743.22;5069235;28;20462;-77
2023/04/01 10:57:10;;;;;;;;;;;;;;;9.58;100.00;99744.94;5068896;28;19932;-76
2023/04/01 10:59:54;;;;;;;;;;;;;;;9.64;100.00;99743.50;5071491;28;20030;-77
2023/04/01 11:02:22;;;;;;;;;;;;;;;9.66;100.00;99740.72;5051051;28;19931;-76
2023/04/01 11:04:50;;;;;;;;;;;;;;;9.68;100.00;99744.06;5065333;28;19920;-77
2023/04/01 11:07:21;;;;;;;;;;;;;;;9.87;100.00;99749.44;5066376;28;19963;-76
2023/04/01 11:10:05;;;;;;;;;;;;;;;9.84;100.00;99746.19;5061700;28;20049;-77
2023/04/01 11:12:35;;;;;;;;;;;;;;;9.95;100.00;99747.88;5070624;28;20010;-75
2023/04/01 11:15:03;;;;;;;;;;;;;;;10.02;100.00;99755.22;5066323;28;19924;-77
2023/04/01 11:17:35;;;;;;;;;;;;;;;10.08;100.00;99756.47;5050101;28;20625;-76
2023/04/01 11:20:18;;;;;;;;;;;;;;;9.98;100.00;99761.00;5065623;28;19919;-76
2023/04/01 11:23:16;;;;;;;;;;;;;;;10.14;100.00;99757.75;5063177;28;19966;-76
2023/04/01 11:25:52;;;;;;;;;;;;;;;10.05;100.00;99754.09;5029034;28;20019;-76
2023/04/01 11:28:27;;;;;;;;;;;;;;;10.09;100.00;99768.91;5068381;28;19920;-78
2023/04/01 11:31:10;;;;;;;;;;;;;;;9.92;100.00;99770.47;5033385;28;19920;-76
2023/04/01 11:33:42;;;;;;;;;;;;;;;9.97;100.00;99761.97;5066523;28;19926;-76
2023/04/01 11:36:13;;;;;;;;;;;;;;;9.97;100.00;99770.91;5051639;28;20034;-76
2023/04/01 11:38:50;;;;;;;;;;;;;;;9.86;100.00;99776.38;5068723;28;19989;-77
2023/04/01 11:41:22;;;;;;;;;;;;;;;9.98;100.00;99771.72;5066511;28;19921;-77
2023/04/01 11:44:06;;;;;;;;;;;;;;;9.95;100.00;99785.41;5054302;28;20031;-76
2023/04/01 11:46:57;;;;;;;;;;;;;;;9.79;100.00;99777.97;5069621;28;19987;-74
2023/04/01 11:49:42;;;;;;;;;;;;;;;9.82;100.00;99793.72;5056442;28;19926;-75
2023/04/01 11:52:15;;;;;;;;;;;;;;;9.91;100.00;99795.59;5071143;28;19969;-75
2023/04/01 11:54:44;;;;;;;;;;;;;;;10.01;100.00;99792.91;5048364;28;20473;-76
2023/04/01 11:57:13;;;;;;;;;;;;;;;10.04;100.00;99806.03;5069670;28;19927;-77
2023/04/01 11:59:44;;;;;;;;;;;;;;;10.10;100.00;99809.97;5054823;28;20014;-76
2023/04/01 12:02:28;;;;;;;;;;;;;;;10.23;100.00;99807.84;5072144;28;19947;-76
2023/04/01 12:05:06;;;;;;;;;;;;;;;10.32;100.00;99807.00;5071190;28;19924;-75
2023/04/01 12:07:41;;;;;;;;;;;;;;;10.27;100.00;99813.78;5054859;28;19981;-75
2023/04/01 12:10:19;;;;;;;;;;;;;;;10.41;100.00;99812.50;5069929;28;20240;-77
2023/04/01 12:12:47;;;;;;;;;;;;;;;10.40;100.00;99817.06;5068468;28;19926;-76
2023/04/01 12:15:31;;;;;;;;;;;;;;;10.35;100.00;99824.66;5071586;28;19924;-77
2023/04/01 12:18:05;;;;;;;;;;;;;;;10.41;100.00;99821.44;5075340;28;19920;-76
2023/04/01 12:20:37;;;;;;;;;;;;;;;10.65;100.00;99828.16;5072852;28;19966;-76
2023/04/01 12:23:21;;;;;;;;;;;;;;;10.53;100.00;99832.00;5054226;28;19924;-77
2023/04/01 12:25:46;;;;;;;;;;;;;;;10.47;100.00;99842.31;5068808;28;19920;-76
2023/04/01 12:28:17;;;;;;;;;;;;;;;10.41;100.00;99844.72;5070530;28;20894;-76
2023/04/01 12:30:46;;;;;;;;;;;;;;;10.14;100.00;99820.28;5068598;28;20373;-76
2023/04/01 12:33:49;;;;;;;;;;;;;;;10.25;100.00;99843.44;5070621;28;20000;-75
2023/04/01 12:36:33;;;;;;;;;;;;;;;10.36;100.00;99845.13;4991280;28;20337;-75
2023/04/01 12:39:20;;;;;;;;;;;;;;;10.57;100.00;99850.38;4972552;28;19933;-75
2023/04/01 12:42:03;;;;;;;;;;;;;;;10.56;100.00;99855.84;5032790;28;19986;-76
2023/04/01 12:44:41;;;;;;;;;;;;;;;10.85;100.00;99857.63;5070272;28;19974;-75
2023/04/01 12:47:25;;;;;;;;;;;;;;;10.82;100.00;99858.78;5048334;28;20001;-77
2023/04/01 12:49:53;;;;;;;;;;;;;;;10.79;100.00;99859.91;5067515;28;19920;-76
2023/04/01 12:52:37;;;;;;;;;;;;;;;10.91;100.00;99859.75;5072201;28;19938;-76
2023/04/01 12:55:20;;;;;;;;;;;;;;;10.81;100.00;99870.53;5073099;28;19932;-76
2023/04/01 12:57:45;;;;;;;;;;;;;;;10.70;100.00;99874.22;5052264;28;19920;-76
2023/04/01 13:00:12;;;;;;;;;;;;;;;10.53;100.00;99873.09;5068272;28;19920;-76
2023/04/01 13:02:47;;;;;;;;;;;;;;;10.35;100.00;99870.25;5053324;28;19927;-77
2023/04/01 13:05:12;;;;;;;;;;;;;;;10.40;100.00;99872.53;5064897;28;19973;-76